createdAt,value
2022-10-11T00:01:31.754Z,20.30
2022-10-11T00:03:58.838Z,20.30
2022-10-11T00:06:25.858Z,20.30
2022-10-11T00:08:52.869Z,20.30
2022-10-11T00:11:19.950Z,20.30
2022-10-11T00:13:47.129Z,20.30
2022-10-11T00:16:15.410Z,20.20
2022-10-11T00:18:42.525Z,20.30
2022-10-11T00:21:11.838Z,20.20
2022-10-11T00:23:38.876Z,20.30
2022-10-11T00:26:07.465Z,20.20
2022-10-11T00:28:35.025Z,20.20
2022-10-11T00:31:02.810Z,20.20
2022-10-11T00:33:30.217Z,20.20
2022-10-11T00:35:59.011Z,20.20
2022-10-11T00:38:26.162Z,20.20
2022-10-11T00:40:53.261Z,20.20
2022-10-11T00:43:22.181Z,20.20
2022-10-11T00:45:59.409Z,20.20
2022-10-11T00:48:35.509Z,20.20
2022-10-11T00:51:04.869Z,20.20
2022-10-11T00:53:32.539Z,20.20
2022-10-11T00:56:03.191Z,20.20
2022-10-11T00:58:31.553Z,20.20
2022-10-11T01:00:58.566Z,20.20
2022-10-11T01:03:26.727Z,20.20
2022-10-11T01:05:54.006Z,20.20
2022-10-11T01:08:21.021Z,20.20
2022-10-11T01:10:48.053Z,20.20
2022-10-11T01:13:33.548Z,20.10
2022-10-11T01:16:08.055Z,20.10
2022-10-11T01:18:42.756Z,20.10
2022-10-11T01:21:21.447Z,20.10
2022-10-11T01:23:48.516Z,20.10
2022-10-11T01:26:34.087Z,20.10
2022-10-11T01:29:01.226Z,20.10
2022-10-11T01:31:31.510Z,20.10
2022-10-11T01:34:24.624Z,20.10
2022-10-11T01:36:58.888Z,20.10
2022-10-11T01:39:30.842Z,20.10
2022-10-11T01:42:00.245Z,20.10
2022-10-11T01:44:28.526Z,20.10
2022-10-11T01:46:55.929Z,20.10
2022-10-11T01:49:22.922Z,20.10
2022-10-11T01:51:52.602Z,20.00
2022-10-11T01:54:19.581Z,20.10
2022-10-11T01:56:53.099Z,20.00
2022-10-11T01:59:20.744Z,20.00
2022-10-11T02:02:06.392Z,20.00
2022-10-11T02:04:36.856Z,20.00
2022-10-11T02:07:10.318Z,20.00
2022-10-11T02:09:40.341Z,20.00
2022-10-11T02:12:09.294Z,20.00
2022-10-11T02:14:38.223Z,20.00
2022-10-11T02:17:13.917Z,20.00
2022-10-11T02:19:43.525Z,20.00
2022-10-11T02:22:14.993Z,20.00
2022-10-11T02:24:44.141Z,20.00
2022-10-11T02:27:11.362Z,20.00
2022-10-11T02:29:39.607Z,20.00
2022-10-11T02:32:07.873Z,20.00
2022-10-11T02:34:41.184Z,20.00
2022-10-11T02:37:22.718Z,19.90
2022-10-11T02:39:56.500Z,20.00
2022-10-11T02:42:26.796Z,20.00
2022-10-11T02:45:00.700Z,20.00
2022-10-11T02:47:29.149Z,20.00
2022-10-11T02:49:56.400Z,19.90
2022-10-11T02:52:23.409Z,19.90
2022-10-11T02:54:50.449Z,19.90
2022-10-11T02:57:17.421Z,19.90
2022-10-11T02:59:44.535Z,19.90
2022-10-11T03:02:11.525Z,19.90
2022-10-11T03:04:38.524Z,19.90
2022-10-11T03:07:05.536Z,19.90
2022-10-11T03:09:32.537Z,19.90
2022-10-11T03:11:59.621Z,19.90
2022-10-11T03:14:26.892Z,19.90
2022-10-11T03:16:53.919Z,19.90
2022-10-11T03:19:20.912Z,19.80
2022-10-11T03:21:48.036Z,19.80
2022-10-11T03:24:15.031Z,19.90
2022-10-11T03:26:42.028Z,19.80
2022-10-11T03:29:09.025Z,19.80
2022-10-11T03:31:36.150Z,19.80
2022-10-11T03:34:03.149Z,19.80
2022-10-11T03:36:30.177Z,19.80
2022-10-11T03:38:57.226Z,19.80
2022-10-11T03:41:24.296Z,19.80
2022-10-11T03:43:51.334Z,19.80
2022-10-11T03:46:18.395Z,19.80
2022-10-11T03:48:45.503Z,19.80
2022-10-11T03:51:13.140Z,19.80
2022-10-11T03:53:40.156Z,19.80
2022-10-11T03:56:08.646Z,19.80
2022-10-11T03:58:35.853Z,19.80
2022-10-11T04:01:02.917Z,19.80
2022-10-11T04:03:29.935Z,19.80
2022-10-11T04:05:56.904Z,19.80
2022-10-11T04:08:23.938Z,19.90
2022-10-11T04:10:50.929Z,20.00
2022-10-11T04:13:17.911Z,20.30
2022-10-11T04:15:44.928Z,20.50
2022-10-11T04:18:11.997Z,20.80
2022-10-11T04:20:38.988Z,21.10
2022-10-11T04:23:06.047Z,21.30
2022-10-11T04:25:33.112Z,21.60
2022-10-11T04:28:00.152Z,21.80
2022-10-11T04:30:27.302Z,21.90
2022-10-11T04:32:54.427Z,21.90
2022-10-11T04:35:21.423Z,22.00
2022-10-11T04:37:48.437Z,22.10
2022-10-11T04:40:15.454Z,22.20
2022-10-11T04:42:42.464Z,22.20
2022-10-11T04:45:09.916Z,22.20
2022-10-11T04:47:36.945Z,22.20
2022-10-11T04:50:04.564Z,22.20
2022-10-11T04:52:31.577Z,22.20
2022-10-11T04:54:58.594Z,22.20
2022-10-11T04:57:25.644Z,22.20
2022-10-11T04:59:52.595Z,22.10
2022-10-11T05:02:19.784Z,22.10
2022-10-11T05:04:46.828Z,22.10
2022-10-11T05:07:14.045Z,21.90
2022-10-11T05:09:41.095Z,21.80
2022-10-11T05:12:08.306Z,21.80
2022-10-11T05:14:35.394Z,21.70
2022-10-11T05:17:03.336Z,21.70
2022-10-11T05:19:30.442Z,21.60
2022-10-11T05:21:57.455Z,21.70
2022-10-11T05:24:24.574Z,21.70
2022-10-11T05:26:51.837Z,21.60
2022-10-11T05:29:18.866Z,21.60
2022-10-11T05:31:45.832Z,21.60
2022-10-11T05:34:12.838Z,21.60
2022-10-11T05:36:39.832Z,21.50
2022-10-11T05:39:06.884Z,21.50
2022-10-11T05:41:33.965Z,21.50
2022-10-11T05:44:00.924Z,21.50
2022-10-11T05:46:27.930Z,21.40
2022-10-11T05:48:54.963Z,21.40
2022-10-11T05:51:21.950Z,21.40
2022-10-11T05:53:49.263Z,21.40
2022-10-11T05:56:23.395Z,21.30
2022-10-11T05:58:50.873Z,21.30
2022-10-11T06:01:18.870Z,21.30
2022-10-11T06:03:46.033Z,21.30
2022-10-11T06:06:13.154Z,21.30
2022-10-11T06:08:40.200Z,21.20
2022-10-11T06:11:15.311Z,21.20
2022-10-11T06:13:42.786Z,21.20
2022-10-11T06:16:09.945Z,21.30
2022-10-11T06:18:37.014Z,21.30
2022-10-11T06:21:04.343Z,21.30
2022-10-11T06:23:31.328Z,21.40
2022-10-11T06:26:02.701Z,21.40
2022-10-11T06:28:30.088Z,21.40
2022-10-11T06:30:57.584Z,21.50
2022-10-11T06:33:25.185Z,21.50
2022-10-11T06:35:59.338Z,21.50
2022-10-11T06:38:26.412Z,21.60
2022-10-11T06:40:53.416Z,21.60
2022-10-11T06:43:20.737Z,21.60
2022-10-11T06:45:47.850Z,21.60
2022-10-11T06:48:15.093Z,21.60
2022-10-11T06:50:59.159Z,21.70
2022-10-11T06:53:27.411Z,21.70
2022-10-11T06:56:22.266Z,21.60
2022-10-11T06:58:50.939Z,21.60
2022-10-11T07:01:20.021Z,21.60
2022-10-11T07:03:47.629Z,21.60
2022-10-11T07:06:15.710Z,21.60
2022-10-11T07:08:42.754Z,21.50
2022-10-11T07:11:14.149Z,21.50
2022-10-11T07:13:41.370Z,21.50
2022-10-11T07:16:10.038Z,21.50
2022-10-11T07:18:37.740Z,21.40
2022-10-11T07:21:10.394Z,21.40
2022-10-11T07:23:37.862Z,21.40
2022-10-11T07:26:05.583Z,21.30
2022-10-11T07:28:33.244Z,21.30
2022-10-11T07:31:04.163Z,21.30
2022-10-11T07:33:31.468Z,21.30
2022-10-11T07:35:58.501Z,21.30
2022-10-11T07:38:25.623Z,21.20
2022-10-11T07:40:52.670Z,21.20
2022-10-11T07:43:19.701Z,21.20
2022-10-11T07:45:48.701Z,21.20
2022-10-11T07:48:15.758Z,21.20
2022-10-11T07:50:42.813Z,21.20
2022-10-11T07:53:09.910Z,21.20
2022-10-11T07:55:40.497Z,21.20
2022-10-11T07:58:11.389Z,21.20
2022-10-11T08:00:39.105Z,21.20
2022-10-11T08:03:06.288Z,21.20
2022-10-11T08:05:34.202Z,21.30
2022-10-11T08:08:01.242Z,21.30
2022-10-11T08:10:28.493Z,21.40
2022-10-11T08:12:55.539Z,21.40
2022-10-11T08:15:22.691Z,21.40
2022-10-11T08:17:49.717Z,21.40
2022-10-11T08:20:16.810Z,21.40
2022-10-11T08:22:43.780Z,21.50
2022-10-11T08:25:10.819Z,21.50
2022-10-11T08:27:37.937Z,21.50
2022-10-11T08:30:05.545Z,21.50
2022-10-11T08:32:32.652Z,21.50
2022-10-11T08:34:59.731Z,21.60
2022-10-11T08:37:26.758Z,21.60
2022-10-11T08:39:53.857Z,21.60
2022-10-11T08:42:26.680Z,21.60
2022-10-11T08:45:11.930Z,21.60
2022-10-11T08:47:40.912Z,21.60
2022-10-11T08:50:14.119Z,21.60
2022-10-11T08:52:47.775Z,21.60
2022-10-11T08:55:33.489Z,21.60
2022-10-11T08:58:01.882Z,21.60
2022-10-11T09:00:31.268Z,21.60
2022-10-11T09:03:08.645Z,21.50
2022-10-11T09:05:43.842Z,21.50
2022-10-11T09:08:17.671Z,21.50
2022-10-11T09:10:58.872Z,21.50
2022-10-11T09:13:35.722Z,21.40
2022-10-11T09:16:09.149Z,21.40
2022-10-11T09:18:41.200Z,21.40
2022-10-11T09:21:11.010Z,21.30
2022-10-11T09:23:41.152Z,21.30
2022-10-11T09:26:08.540Z,21.30
2022-10-11T09:29:00.054Z,21.30
2022-10-11T09:31:28.752Z,21.30
2022-10-11T09:33:56.020Z,21.20
2022-10-11T09:36:31.141Z,21.20
2022-10-11T09:39:07.225Z,21.20
2022-10-11T09:41:41.616Z,21.20
2022-10-11T09:44:13.625Z,21.20
2022-10-11T09:46:42.204Z,21.10
2022-10-11T09:49:12.229Z,21.10
2022-10-11T09:51:41.731Z,21.20
2022-10-11T09:54:10.764Z,21.20
2022-10-11T09:56:44.312Z,21.20
2022-10-11T09:59:29.618Z,21.20
2022-10-11T10:02:15.590Z,21.20
2022-10-11T10:04:54.741Z,21.30
2022-10-11T10:07:21.821Z,21.30
2022-10-11T10:09:49.667Z,21.40
2022-10-11T10:12:21.774Z,21.40
2022-10-11T10:14:55.818Z,21.40
2022-10-11T10:17:22.925Z,21.50
2022-10-11T10:19:54.297Z,21.60
2022-10-11T10:22:23.368Z,21.50
2022-10-11T10:24:50.994Z,21.60
2022-10-11T10:27:21.125Z,21.60
2022-10-11T10:30:13.169Z,21.60
2022-10-11T10:33:06.838Z,21.60
2022-10-11T10:35:49.204Z,21.60
2022-10-11T10:38:24.116Z,21.60
2022-10-11T10:40:56.150Z,21.60
2022-10-11T10:43:25.070Z,21.60
2022-10-11T10:46:10.684Z,21.60
2022-10-11T10:49:28.381Z,21.60
2022-10-11T10:51:45.213Z,21.50
2022-10-11T10:54:30.768Z,21.50
2022-10-11T10:57:22.293Z,21.50
2022-10-11T10:59:56.070Z,21.50
2022-10-11T11:02:40.067Z,21.50
2022-10-11T11:05:08.505Z,21.50
2022-10-11T11:07:35.547Z,21.40
2022-10-11T11:10:05.658Z,21.40
2022-10-11T11:12:55.109Z,21.40
2022-10-11T11:15:32.647Z,21.40
2022-10-11T11:18:17.910Z,21.30
2022-10-11T11:21:03.294Z,21.30
2022-10-11T11:23:33.537Z,21.30
2022-10-11T11:26:04.011Z,21.30
2022-10-11T11:28:37.161Z,21.30
2022-10-11T11:31:07.587Z,21.30
2022-10-11T11:33:39.986Z,21.20
2022-10-11T11:36:11.123Z,21.20
2022-10-11T11:38:38.241Z,21.20
2022-10-11T11:41:10.093Z,21.20
2022-10-11T11:43:50.474Z,21.20
2022-10-11T11:46:20.403Z,21.20
2022-10-11T11:48:48.653Z,21.20
2022-10-11T11:51:30.660Z,21.30
2022-10-11T11:54:17.474Z,21.20
2022-10-11T11:56:48.984Z,21.30
2022-10-11T11:59:34.618Z,21.20
2022-10-11T12:02:15.161Z,21.20
2022-10-11T12:04:43.504Z,21.20
2022-10-11T12:07:16.459Z,21.20
2022-10-11T12:09:45.554Z,21.20
2022-10-11T12:12:28.039Z,21.30
2022-10-11T12:15:04.257Z,21.30
2022-10-11T12:17:31.450Z,21.40
2022-10-11T12:20:14.619Z,21.40
2022-10-11T12:22:53.935Z,21.60
2022-10-11T12:25:27.209Z,21.60
2022-10-11T12:27:55.910Z,21.70
2022-10-11T12:30:41.670Z,21.80
2022-10-11T12:33:27.535Z,21.80
2022-10-11T12:35:54.732Z,21.80
2022-10-11T12:38:24.640Z,21.80
2022-10-11T12:41:16.792Z,21.70
2022-10-11T12:43:49.990Z,21.70
2022-10-11T12:46:29.304Z,21.70
2022-10-11T12:49:15.335Z,21.70
2022-10-11T12:51:50.613Z,21.70
2022-10-11T12:54:37.385Z,21.80
2022-10-11T12:57:26.903Z,21.80
2022-10-11T12:59:54.009Z,21.90
2022-10-11T13:02:21.001Z,21.90
2022-10-11T13:04:48.076Z,21.90
2022-10-11T13:07:23.370Z,21.90
2022-10-11T13:09:53.341Z,21.80
2022-10-11T13:12:23.198Z,21.80
2022-10-11T13:14:59.376Z,21.70
2022-10-11T13:17:32.338Z,21.80
2022-10-11T13:20:09.553Z,21.90
2022-10-11T13:22:39.450Z,21.90
2022-10-11T13:25:07.597Z,21.90
2022-10-11T13:27:36.962Z,22.00
2022-10-11T13:30:08.360Z,22.00
2022-10-11T13:32:36.426Z,22.00
2022-10-11T13:35:05.333Z,22.10
2022-10-11T13:37:40.719Z,22.10
2022-10-11T13:40:12.993Z,22.00
2022-10-11T13:42:40.476Z,21.90
2022-10-11T13:45:14.359Z,21.90
2022-10-11T13:47:41.704Z,21.80
2022-10-11T13:50:31.573Z,21.70
2022-10-11T13:53:00.869Z,21.70
2022-10-11T13:55:35.653Z,21.70
2022-10-11T13:58:08.658Z,21.60
2022-10-11T14:00:39.393Z,21.60
2022-10-11T14:03:12.444Z,21.60
2022-10-11T14:05:44.001Z,21.60
2022-10-11T14:08:29.605Z,21.50
2022-10-11T14:10:59.376Z,21.50
2022-10-11T14:13:33.301Z,21.50
2022-10-11T14:16:14.429Z,21.40
2022-10-11T14:18:53.538Z,21.50
2022-10-11T14:21:20.623Z,21.50
2022-10-11T14:23:52.054Z,21.50
2022-10-11T14:26:19.913Z,21.50
2022-10-11T14:28:52.548Z,21.50
2022-10-11T14:31:19.743Z,21.50
2022-10-11T14:33:46.876Z,21.60
2022-10-11T14:36:13.847Z,21.60
2022-10-11T14:38:40.893Z,21.60
2022-10-11T14:41:07.993Z,21.70
2022-10-11T14:43:35.031Z,21.70
2022-10-11T14:46:02.091Z,21.80
2022-10-11T14:48:53.917Z,21.90
2022-10-11T14:51:18.658Z,21.90
2022-10-11T14:53:46.424Z,21.90
2022-10-11T14:56:15.701Z,21.90
2022-10-11T14:58:46.052Z,21.90
2022-10-11T15:01:13.798Z,21.90
2022-10-11T15:03:41.116Z,21.90
2022-10-11T15:06:14.370Z,21.90
2022-10-11T15:08:41.399Z,21.90
2022-10-11T15:11:09.985Z,21.90
2022-10-11T15:13:37.037Z,21.90
2022-10-11T15:16:04.581Z,21.90
2022-10-11T15:18:31.818Z,21.90
2022-10-11T15:20:58.947Z,21.80
2022-10-11T15:23:25.926Z,21.80
2022-10-11T15:25:52.938Z,21.80
2022-10-11T15:28:23.902Z,21.80
2022-10-11T15:30:50.973Z,21.80
2022-10-11T15:33:18.042Z,21.80
2022-10-11T15:35:45.155Z,21.80
2022-10-11T15:38:16.049Z,21.70
2022-10-11T15:40:43.269Z,21.70
2022-10-11T15:43:10.272Z,21.60
2022-10-11T15:45:37.393Z,21.60
2022-10-11T15:48:04.709Z,21.60
2022-10-11T15:50:36.778Z,21.60
2022-10-11T15:53:17.220Z,21.50
2022-10-11T15:55:50.307Z,21.50
2022-10-11T15:58:18.806Z,21.50
2022-10-11T16:00:46.888Z,21.50
2022-10-11T16:03:14.876Z,21.50
2022-10-11T16:05:42.495Z,21.50
2022-10-11T16:08:10.275Z,21.50
2022-10-11T16:10:37.765Z,21.50
2022-10-11T16:13:05.400Z,21.60
2022-10-11T16:15:32.498Z,21.60
2022-10-11T16:17:59.542Z,21.60
2022-10-11T16:20:26.704Z,21.50
2022-10-11T16:22:54.306Z,21.60
2022-10-11T16:25:21.756Z,21.60
2022-10-11T16:27:48.840Z,21.60
2022-10-11T16:30:16.878Z,21.60
2022-10-11T16:32:44.455Z,21.60
2022-10-11T16:35:12.338Z,21.60
2022-10-11T16:37:39.455Z,21.70
2022-10-11T16:40:07.039Z,21.70
2022-10-11T16:42:34.238Z,21.70
2022-10-11T16:45:01.422Z,21.70
2022-10-11T16:47:28.401Z,21.70
2022-10-11T16:49:55.457Z,21.80
2022-10-11T16:52:22.429Z,21.80
2022-10-11T16:54:49.466Z,21.80
2022-10-11T16:57:17.520Z,21.80
2022-10-11T16:59:44.610Z,21.80
2022-10-11T17:02:19.592Z,21.80
2022-10-11T17:04:46.846Z,21.80
2022-10-11T17:07:13.939Z,21.90
2022-10-11T17:09:43.928Z,21.90
2022-10-11T17:12:13.245Z,21.90
2022-10-11T17:14:40.520Z,21.90
2022-10-11T17:17:08.477Z,21.90
2022-10-11T17:19:39.172Z,21.90
2022-10-11T17:22:09.266Z,21.90
2022-10-11T17:24:36.831Z,21.90
2022-10-11T17:27:04.359Z,21.90
2022-10-11T17:29:31.500Z,21.90
2022-10-11T17:31:58.604Z,21.90
2022-10-11T17:34:25.830Z,21.90
2022-10-11T17:36:52.838Z,21.90
2022-10-11T17:39:21.646Z,21.90
2022-10-11T17:41:49.305Z,21.90
2022-10-11T17:44:17.943Z,21.90
2022-10-11T17:46:45.677Z,21.90
2022-10-11T17:49:13.121Z,21.90
2022-10-11T17:51:40.864Z,21.80
2022-10-11T17:54:12.295Z,21.80
2022-10-11T17:56:40.728Z,21.80
2022-10-11T17:59:08.591Z,21.80
2022-10-11T18:01:35.931Z,21.80
2022-10-11T18:04:04.188Z,21.70
2022-10-11T18:06:32.726Z,21.70
2022-10-11T18:09:00.892Z,21.70
2022-10-11T18:11:28.402Z,21.70
2022-10-11T18:13:55.710Z,21.70
2022-10-11T18:16:24.385Z,21.70
2022-10-11T18:18:51.437Z,21.70
2022-10-11T18:21:19.364Z,21.70
2022-10-11T18:23:46.564Z,21.60
2022-10-11T18:26:18.092Z,21.60
2022-10-11T18:28:45.518Z,21.60
2022-10-11T18:31:14.636Z,21.60
2022-10-11T18:33:42.355Z,21.60
2022-10-11T18:36:10.922Z,21.70
2022-10-11T18:38:38.072Z,21.60
2022-10-11T18:41:06.101Z,20.80
2022-10-11T18:43:33.496Z,20.30
2022-10-11T18:46:19.324Z,20.30
2022-10-11T18:48:47.084Z,20.50
2022-10-11T18:51:15.766Z,20.80
2022-10-11T18:53:42.818Z,21.00
2022-10-11T18:56:10.443Z,21.20
2022-10-11T18:58:38.208Z,21.30
2022-10-11T19:01:12.743Z,21.50
2022-10-11T19:03:39.876Z,21.60
2022-10-11T19:06:09.005Z,21.70
2022-10-11T19:08:36.670Z,21.90
2022-10-11T19:11:04.996Z,22.00
2022-10-11T19:13:32.082Z,22.00
2022-10-11T19:16:09.947Z,22.10
2022-10-11T19:18:41.821Z,22.10
2022-10-11T19:21:12.451Z,22.10
2022-10-11T19:23:40.836Z,22.20
2022-10-11T19:26:11.358Z,22.20
2022-10-11T19:28:38.567Z,22.10
2022-10-11T19:31:07.822Z,22.10
2022-10-11T19:33:35.447Z,22.10
2022-10-11T19:36:03.641Z,22.10
2022-10-11T19:38:34.102Z,22.00
2022-10-11T19:41:01.866Z,22.00
2022-10-11T19:43:28.933Z,22.00
2022-10-11T19:46:08.362Z,22.00
2022-10-11T19:48:36.890Z,21.90
2022-10-11T19:51:05.393Z,21.90
2022-10-11T19:53:32.494Z,21.90
2022-10-11T19:56:00.409Z,21.90
2022-10-11T19:58:27.449Z,21.90
2022-10-11T20:01:01.410Z,21.80
2022-10-11T20:03:28.832Z,21.80
2022-10-11T20:05:58.562Z,21.80
2022-10-11T20:08:25.582Z,21.80
2022-10-11T20:10:53.236Z,21.70
2022-10-11T20:13:20.598Z,21.70
2022-10-11T20:15:47.611Z,21.70
2022-10-11T20:18:14.696Z,21.70
2022-10-11T20:20:51.103Z,21.70
2022-10-11T20:23:18.562Z,21.60
2022-10-11T20:25:46.249Z,21.60
2022-10-11T20:28:13.360Z,21.60
2022-10-11T20:30:43.487Z,21.50
2022-10-11T20:33:10.690Z,21.50
2022-10-11T20:35:37.787Z,21.50
2022-10-11T20:38:04.874Z,21.50
2022-10-11T20:40:32.106Z,21.40
2022-10-11T20:42:59.073Z,21.40
2022-10-11T20:45:26.066Z,21.40
2022-10-11T20:47:53.349Z,21.40
2022-10-11T20:50:23.052Z,21.30
2022-10-11T20:52:50.331Z,21.30
2022-10-11T20:55:17.426Z,21.30
2022-10-11T20:57:44.421Z,21.30
2022-10-11T21:00:11.775Z,21.20
2022-10-11T21:02:38.832Z,21.20
2022-10-11T21:05:06.080Z,21.20
2022-10-11T21:07:33.348Z,21.20
2022-10-11T21:10:00.525Z,21.20
2022-10-11T21:12:27.515Z,21.10
2022-10-11T21:14:54.574Z,21.10
2022-10-11T21:17:21.642Z,21.10
2022-10-11T21:19:48.766Z,21.00
2022-10-11T21:22:15.848Z,21.00
2022-10-11T21:24:42.968Z,21.00
2022-10-11T21:27:09.950Z,21.00
2022-10-11T21:29:36.973Z,21.00
2022-10-11T21:32:03.994Z,21.00
2022-10-11T21:34:31.085Z,20.90
2022-10-11T21:36:58.086Z,20.90
2022-10-11T21:39:25.061Z,20.90
2022-10-11T21:41:52.170Z,20.90
2022-10-11T21:44:19.293Z,20.90
2022-10-11T21:49:33.290Z,20.80
2022-10-11T21:52:00.320Z,20.80
2022-10-11T21:54:27.412Z,20.80
2022-10-11T21:56:54.395Z,20.80
2022-10-11T21:59:21.427Z,20.80
2022-10-11T22:01:48.513Z,20.80
2022-10-11T22:04:15.608Z,20.80
2022-10-11T22:06:42.766Z,20.80
2022-10-11T22:09:09.832Z,20.80
2022-10-11T22:11:37.160Z,20.80
2022-10-11T22:14:04.155Z,20.70
2022-10-11T22:16:32.380Z,20.70
2022-10-11T22:19:00.012Z,20.70
2022-10-11T22:21:27.080Z,20.70
2022-10-11T22:23:54.435Z,20.70
2022-10-11T22:26:22.985Z,20.70
2022-10-11T22:28:50.116Z,20.70
2022-10-11T22:31:18.207Z,20.70
2022-10-11T22:36:18.944Z,20.60
2022-10-11T22:38:46.382Z,20.60
2022-10-11T22:41:13.365Z,20.60
2022-10-11T22:43:40.499Z,20.60
2022-10-11T22:46:07.966Z,20.60
2022-10-11T22:48:35.466Z,20.60
2022-10-11T22:51:02.566Z,20.50
2022-10-11T22:53:30.377Z,20.60
2022-10-11T22:55:57.406Z,20.50
2022-10-11T22:58:24.475Z,20.50
2022-10-11T23:00:51.476Z,20.50
2022-10-11T23:03:18.977Z,20.50
2022-10-11T23:05:56.205Z,20.50
2022-10-11T23:08:23.189Z,20.50
2022-10-11T23:10:50.165Z,20.50
2022-10-11T23:13:17.351Z,20.50
2022-10-11T23:15:44.333Z,20.40
2022-10-11T23:18:11.495Z,20.40
2022-10-11T23:20:39.399Z,20.40
2022-10-11T23:23:06.750Z,20.40
2022-10-11T23:25:33.806Z,20.40
2022-10-11T23:28:01.030Z,20.40
2022-10-11T23:30:28.858Z,20.40
2022-10-11T23:32:55.877Z,20.40
2022-10-11T23:35:23.031Z,20.40
2022-10-11T23:37:49.996Z,20.30
2022-10-11T23:40:17.102Z,20.30
2022-10-11T23:42:44.230Z,20.30
2022-10-11T23:45:11.237Z,20.30
2022-10-11T23:47:38.393Z,20.30
2022-10-11T23:50:05.822Z,20.30
2022-10-11T23:52:32.898Z,20.30
2022-10-11T23:54:59.889Z,20.30
2022-10-11T23:57:26.912Z,20.30
2022-10-11T23:59:53.920Z,20.30
